sensor_id;sensor_type;location;lat;lon;timestamp;pressure;altitude;pressure_sealevel;temperature;humidity
39243;BME280;29823;47.404;8.566;2023-03-04T00:01:09;96860.69;;;3.59;100.00
39243;BME280;29823;47.404;8.566;2023-03-04T00:03:37;96860.88;;;3.58;100.00
39243;BME280;29823;47.404;8.566;2023-03-04T00:06:05;96850.66;;;3.55;100.00
39243;BME280;29823;47.404;8.566;2023-03-04T00:08:33;96853.25;;;3.77;100.00
39243;BME280;29823;47.404;8.566;2023-03-04T00:11:01;96861.00;;;3.64;100.00
39243;BME280;29823;47.404;8.566;2023-03-04T00:13:29;96858.97;;;3.66;100.00
39243;BME280;29823;47.404;8.566;2023-03-04T00:15:57;96858.78;;;3.53;100.00
39243;BME280;29823;47.404;8.566;2023-03-04T00:18:26;96852.09;;;3.43;100.00
39243;BME280;29823;47.404;8.566;2023-03-04T00:20:54;96857.75;;;3.40;100.00
39243;BME280;29823;47.404;8.566;2023-03-04T00:23:21;96854.94;;;3.19;100.00
39243;BME280;29823;47.404;8.566;2023-03-04T00:25:49;96856.41;;;3.21;100.00
39243;BME280;29823;47.404;8.566;2023-03-04T00:28:18;96865.28;;;3.06;100.00
39243;BME280;29823;47.404;8.566;2023-03-04T00:30:45;96855.59;;;2.98;100.00
39243;BME280;29823;47.404;8.566;2023-03-04T00:33:13;96806.72;;;2.57;100.00
39243;BME280;29823;47.404;8.566;2023-03-04T00:35:43;96866.84;;;2.92;100.00
39243;BME280;29823;47.404;8.566;2023-03-04T00:38:10;96857.22;;;2.77;100.00
39243;BME280;29823;47.404;8.566;2023-03-04T00:40:38;96865.28;;;2.83;100.00
39243;BME280;29823;47.404;8.566;2023-03-04T00:43:06;96871.03;;;2.87;100.00
39243;BME280;29823;47.404;8.566;2023-03-04T00:45:34;96875.06;;;2.97;100.00
39243;BME280;29823;47.404;8.566;2023-03-04T00:48:02;96869.63;;;2.99;100.00
39243;BME280;29823;47.404;8.566;2023-03-04T00:50:30;96877.00;;;3.03;100.00
39243;BME280;29823;47.404;8.566;2023-03-04T00:52:59;96865.63;;;3.03;100.00
39243;BME280;29823;47.404;8.566;2023-03-04T00:55:27;96851.59;;;3.02;100.00
39243;BME280;29823;47.404;8.566;2023-03-04T00:57:55;96865.09;;;3.07;100.00
39243;BME280;29823;47.404;8.566;2023-03-04T01:00:23;96859.81;;;3.07;100.00
39243;BME280;29823;47.404;8.566;2023-03-04T01:02:51;96850.78;;;3.02;100.00
39243;BME280;29823;47.404;8.566;2023-03-04T01:05:18;96854.34;;;2.86;100.00
39243;BME280;29823;47.404;8.566;2023-03-04T01:07:47;96837.22;;;2.60;100.00
39243;BME280;29823;47.404;8.566;2023-03-04T01:10:16;96854.81;;;2.67;100.00
39243;BME280;29823;47.404;8.566;2023-03-04T01:12:44;96849.03;;;2.64;100.00
39243;BME280;29823;47.404;8.566;2023-03-04T01:15:13;96842.72;;;2.73;100.00
39243;BME280;29823;47.404;8.566;2023-03-04T01:17:41;96846.00;;;2.52;100.00
39243;BME280;29823;47.404;8.566;2023-03-04T01:20:10;96850.28;;;2.53;100.00
39243;BME280;29823;47.404;8.566;2023-03-04T01:22:38;96847.03;;;2.43;100.00
39243;BME280;29823;47.404;8.566;2023-03-04T01:25:07;96841.97;;;2.34;100.00
39243;BME280;29823;47.404;8.566;2023-03-04T01:27:36;96834.59;;;2.29;100.00
39243;BME280;29823;47.404;8.566;2023-03-04T01:30:05;96839.50;;;2.32;100.00
39243;BME280;29823;47.404;8.566;2023-03-04T01:32:33;96838.84;;;2.30;100.00
39243;BME280;29823;47.404;8.566;2023-03-04T01:35:01;96841.19;;;2.25;100.00
39243;BME280;29823;47.404;8.566;2023-03-04T01:37:28;96841.09;;;2.11;100.00
39243;BME280;29823;47.404;8.566;2023-03-04T01:39:56;96840.94;;;2.04;100.00
39243;BME280;29823;47.404;8.566;2023-03-04T01:42:25;96843.59;;;1.96;100.00
39243;BME280;29823;47.404;8.566;2023-03-04T01:44:55;96841.94;;;1.95;100.00
39243;BME280;29823;47.404;8.566;2023-03-04T01:47:27;96841.47;;;1.92;100.00
39243;BME280;29823;47.404;8.566;2023-03-04T01:49:56;96841.94;;;1.95;100.00
39243;BME280;29823;47.404;8.566;2023-03-04T01:52:26;96839.19;;;1.89;100.00
39243;BME280;29823;47.404;8.566;2023-03-04T01:54:54;96846.44;;;1.87;100.00
39243;BME280;29823;47.404;8.566;2023-03-04T01:57:25;96843.28;;;1.99;100.00
39243;BME280;29823;47.404;8.566;2023-03-04T02:00:23;96843.38;;;2.14;100.00
39243;BME280;29823;47.404;8.566;2023-03-04T02:02:53;96824.75;;;2.15;100.00
39243;BME280;29823;47.404;8.566;2023-03-04T02:05:22;96833.28;;;2.25;100.00
39243;BME280;29823;47.404;8.566;2023-03-04T02:07:52;96826.47;;;2.31;100.00
39243;BME280;29823;47.404;8.566;2023-03-04T02:10:22;96823.72;;;2.24;100.00
39243;BME280;29823;47.404;8.566;2023-03-04T02:12:50;96822.25;;;2.22;100.00
39243;BME280;29823;47.404;8.566;2023-03-04T02:15:20;96816.66;;;2.17;100.00
39243;BME280;29823;47.404;8.566;2023-03-04T02:17:49;96820.78;;;2.11;100.00
39243;BME280;29823;47.404;8.566;2023-03-04T02:20:24;96819.63;;;2.14;100.00
39243;BME280;29823;47.404;8.566;2023-03-04T02:23:00;96815.41;;;2.05;100.00
39243;BME280;29823;47.404;8.566;2023-03-04T02:25:35;96741.47;;;1.52;100.00
39243;BME280;29823;47.404;8.566;2023-03-04T02:28:07;96814.31;;;1.91;100.00
39243;BME280;29823;47.404;8.566;2023-03-04T02:30:35;96821.75;;;1.80;100.00
39243;BME280;29823;47.404;8.566;2023-03-04T02:33:03;96817.00;;;1.67;100.00
39243;BME280;29823;47.404;8.566;2023-03-04T02:35:31;96813.72;;;1.65;100.00
39243;BME280;29823;47.404;8.566;2023-03-04T02:37:59;96829.50;;;1.81;100.00
39243;BME280;29823;47.404;8.566;2023-03-04T02:40:28;96826.19;;;1.87;100.00
39243;BME280;29823;47.404;8.566;2023-03-04T02:42:58;96810.00;;;1.90;100.00
39243;BME280;29823;47.404;8.566;2023-03-04T02:45:34;96820.59;;;1.74;100.00
39243;BME280;29823;47.404;8.566;2023-03-04T02:48:04;96826.19;;;1.79;100.00
39243;BME280;29823;47.404;8.566;2023-03-04T02:50:34;96822.22;;;1.83;100.00
39243;BME280;29823;47.404;8.566;2023-03-04T02:53:03;96826.50;;;1.84;100.00
39243;BME280;29823;47.404;8.566;2023-03-04T02:55:31;96823.44;;;1.73;100.00
39243;BME280;29823;47.404;8.566;2023-03-04T02:57:59;96820.13;;;1.71;100.00
39243;BME280;29823;47.404;8.566;2023-03-04T03:00:27;96816.53;;;1.64;100.00
39243;BME280;29823;47.404;8.566;2023-03-04T03:02:57;96824.28;;;1.57;100.00
39243;BME280;29823;47.404;8.566;2023-03-04T03:05:26;96826.94;;;1.41;100.00
39243;BME280;29823;47.404;8.566;2023-03-04T03:07:56;96826.81;;;1.35;100.00
39243;BME280;29823;47.404;8.566;2023-03-04T03:10:24;96828.94;;;1.39;100.00
39243;BME280;29823;47.404;8.566;2023-03-04T03:12:52;96815.91;;;1.38;100.00
39243;BME280;29823;47.404;8.566;2023-03-04T03:15:20;96821.19;;;1.46;100.00
39243;BME280;29823;47.404;8.566;2023-03-04T03:17:47;96823.16;;;1.52;100.00
39243;BME280;29823;47.404;8.566;2023-03-04T03:20:18;96807.84;;;1.47;100.00
39243;BME280;29823;47.404;8.566;2023-03-04T03:22:46;96822.31;;;1.51;100.00
39243;BME280;29823;47.404;8.566;2023-03-04T03:25:14;96822.66;;;1.48;100.00
39243;BME280;29823;47.404;8.566;2023-03-04T03:27:42;96816.53;;;1.56;100.00
39243;BME280;29823;47.404;8.566;2023-03-04T03:30:12;96810.78;;;1.60;100.00
39243;BME280;29823;47.404;8.566;2023-03-04T03:32:41;96811.94;;;1.58;100.00
39243;BME280;29823;47.404;8.566;2023-03-04T03:35:09;96810.13;;;1.50;100.00
39243;BME280;29823;47.404;8.566;2023-03-04T03:37:38;96819.69;;;1.51;100.00
39243;BME280;29823;47.404;8.566;2023-03-04T03:40:08;96809.81;;;1.45;100.00
39243;BME280;29823;47.404;8.566;2023-03-04T03:42:36;96807.22;;;1.29;100.00
39243;BME280;29823;47.404;8.566;2023-03-04T03:45:05;96809.84;;;1.29;100.00
39243;BME280;29823;47.404;8.566;2023-03-04T03:47:33;96818.91;;;1.27;100.00
39243;BME280;29823;47.404;8.566;2023-03-04T03:50:00;96810.00;;;1.28;100.00
39243;BME280;29823;47.404;8.566;2023-03-04T03:52:28;96802.94;;;1.20;100.00
39243;BME280;29823;47.404;8.566;2023-03-04T03:54:57;96810.50;;;1.15;100.00
39243;BME280;29823;47.404;8.566;2023-03-04T03:57:27;96798.50;;;0.97;100.00
39243;BME280;29823;47.404;8.566;2023-03-04T03:59:55;96813.66;;;1.03;100.00
39243;BME280;29823;47.404;8.566;2023-03-04T04:02:23;96815.63;;;1.01;100.00
39243;BME280;29823;47.404;8.566;2023-03-04T04:04:51;96815.81;;;1.07;100.00
39243;BME280;29823;47.404;8.566;2023-03-04T04:07:19;96820.41;;;1.05;100.00
39243;BME280;29823;47.404;8.566;2023-03-04T04:09:47;96821.72;;;1.09;100.00
39243;BME280;29823;47.404;8.566;2023-03-04T04:12:17;96823.88;;;1.14;100.00
39243;BME280;29823;47.404;8.566;2023-03-04T04:14:46;96813.47;;;1.04;100.00
39243;BME280;29823;47.404;8.566;2023-03-04T04:17:14;96805.91;;;0.93;100.00
39243;BME280;29823;47.404;8.566;2023-03-04T04:19:42;96811.69;;;0.89;100.00
39243;BME280;29823;47.404;8.566;2023-03-04T04:22:13;96813.00;;;1.09;100.00
39243;BME280;29823;47.404;8.566;2023-03-04T04:24:41;96816.78;;;1.06;100.00
39243;BME280;29823;47.404;8.566;2023-03-04T04:27:09;96808.22;;;0.88;100.00
39243;BME280;29823;47.404;8.566;2023-03-04T04:29:39;96821.91;;;0.92;100.00
39243;BME280;29823;47.404;8.566;2023-03-04T04:32:07;96821.88;;;0.84;100.00
39243;BME280;29823;47.404;8.566;2023-03-04T04:34:35;96827.16;;;0.84;100.00
39243;BME280;29823;47.404;8.566;2023-03-04T04:37:03;96816.63;;;0.76;100.00
39243;BME280;29823;47.404;8.566;2023-03-04T04:39:30;96826.97;;;0.77;100.00
39243;BME280;29823;47.404;8.566;2023-03-04T04:41:58;96832.41;;;0.84;100.00
39243;BME280;29823;47.404;8.566;2023-03-04T04:44:26;96830.44;;;0.94;100.00
39243;BME280;29823;47.404;8.566;2023-03-04T04:46:55;96832.41;;;1.16;100.00
39243;BME280;29823;47.404;8.566;2023-03-04T04:49:23;96819.38;;;1.30;100.00
39243;BME280;29823;47.404;8.566;2023-03-04T04:51:51;96837.50;;;1.33;100.00
39243;BME280;29823;47.404;8.566;2023-03-04T04:54:19;96828.13;;;1.15;100.00
39243;BME280;29823;47.404;8.566;2023-03-04T04:56:47;96832.25;;;1.09;100.00
39243;BME280;29823;47.404;8.566;2023-03-04T04:59:14;96842.44;;;1.04;100.00
39243;BME280;29823;47.404;8.566;2023-03-04T05:01:42;96826.19;;;0.93;100.00
39243;BME280;29823;47.404;8.566;2023-03-04T05:04:12;96836.84;;;0.99;100.00
39243;BME280;29823;47.404;8.566;2023-03-04T05:06:39;96833.91;;;0.94;100.00
39243;BME280;29823;47.404;8.566;2023-03-04T05:09:07;96831.56;;;0.83;100.00
39243;BME280;29823;47.404;8.566;2023-03-04T05:11:35;96826.97;;;0.77;100.00
39243;BME280;29823;47.404;8.566;2023-03-04T05:14:03;96828.47;;;0.72;100.00
39243;BME280;29823;47.404;8.566;2023-03-04T05:16:30;96840.13;;;0.77;100.00
39243;BME280;29823;47.404;8.566;2023-03-04T05:18:58;96839.13;;;0.70;100.00
39243;BME280;29823;47.404;8.566;2023-03-04T05:21:27;96841.44;;;0.65;100.00
39243;BME280;29823;47.404;8.566;2023-03-04T05:23:55;96838.81;;;0.65;100.00
39243;BME280;29823;47.404;8.566;2023-03-04T05:26:23;96841.59;;;0.64;100.00
39243;BME280;29823;47.404;8.566;2023-03-04T05:28:51;96840.94;;;0.70;100.00
39243;BME280;29823;47.404;8.566;2023-03-04T05:31:18;96848.19;;;0.84;100.00
39243;BME280;29823;47.404;8.566;2023-03-04T05:33:47;96843.94;;;1.07;100.00
39243;BME280;29823;47.404;8.566;2023-03-04T05:36:15;96846.41;;;1.00;100.00
39243;BME280;29823;47.404;8.566;2023-03-04T05:38:44;96849.34;;;0.97;100.00
39243;BME280;29823;47.404;8.566;2023-03-04T05:41:12;96840.31;;;0.92;100.00
39243;BME280;29823;47.404;8.566;2023-03-04T05:43:39;96852.47;;;1.17;100.00
39243;BME280;29823;47.404;8.566;2023-03-04T05:46:12;96848.38;;;1.14;100.00
39243;BME280;29823;47.404;8.566;2023-03-04T05:48:41;96857.91;;;0.99;100.00
39243;BME280;29823;47.404;8.566;2023-03-04T05:51:09;96847.06;;;1.10;100.00
39243;BME280;29823;47.404;8.566;2023-03-04T05:53:37;96849.03;;;1.08;100.00
39243;BME280;29823;47.404;8.566;2023-03-04T05:56:08;96853.63;;;1.14;100.00
39243;BME280;29823;47.404;8.566;2023-03-04T05:58:36;96854.63;;;1.13;100.00
39243;BME280;29823;47.404;8.566;2023-03-04T06:01:05;96853.31;;;1.09;100.00
39243;BME280;29823;47.404;8.566;2023-03-04T06:03:33;96844.44;;;1.10;100.00
39243;BME280;29823;47.404;8.566;2023-03-04T06:06:02;96853.97;;;1.19;100.00
39243;BME280;29823;47.404;8.566;2023-03-04T06:08:30;96849.38;;;1.13;100.00
39243;BME280;29823;47.404;8.566;2023-03-04T06:10:58;96852.31;;;1.34;100.00
39243;BME280;29823;47.404;8.566;2023-03-04T06:13:27;96858.81;;;1.86;100.00
39243;BME280;29823;47.404;8.566;2023-03-04T06:15:57;96854.69;;;1.84;100.00
39243;BME280;29823;47.404;8.566;2023-03-04T06:18:26;96865.47;;;1.42;100.00
39243;BME280;29823;47.404;8.566;2023-03-04T06:20:55;96872.88;;;1.23;100.00
39243;BME280;29823;47.404;8.566;2023-03-04T06:23:25;96873.56;;;1.17;100.00
39243;BME280;29823;47.404;8.566;2023-03-04T06:25:53;96876.66;;;1.04;100.00
39243;BME280;29823;47.404;8.566;2023-03-04T06:28:22;96867.81;;;1.05;100.00
39243;BME280;29823;47.404;8.566;2023-03-04T06:30:52;96873.72;;;1.15;100.00
39243;BME280;29823;47.404;8.566;2023-03-04T06:33:20;96880.97;;;1.21;100.00
39243;BME280;29823;47.404;8.566;2023-03-04T06:35:48;96881.59;;;1.31;100.00
39243;BME280;29823;47.404;8.566;2023-03-04T06:38:19;96882.13;;;1.27;100.00
39243;BME280;29823;47.404;8.566;2023-03-04T06:40:47;96882.28;;;1.17;100.00
39243;BME280;29823;47.404;8.566;2023-03-04T06:43:15;96888.88;;;1.37;100.00
39243;BME280;29823;47.404;8.566;2023-03-04T06:45:43;96891.00;;;1.26;100.00
39243;BME280;29823;47.404;8.566;2023-03-04T06:48:15;96899.69;;;1.58;100.00
39243;BME280;29823;47.404;8.566;2023-03-04T06:50:43;96896.09;;;1.51;100.00
39243;BME280;29823;47.404;8.566;2023-03-04T06:53:10;96900.03;;;1.47;100.00
39243;BME280;29823;47.404;8.566;2023-03-04T06:55:38;96895.91;;;1.45;100.00
39243;BME280;29823;47.404;8.566;2023-03-04T06:58:06;96890.03;;;1.51;100.00
39243;BME280;29823;47.404;8.566;2023-03-04T07:00:34;96908.59;;;1.65;100.00
39243;BME280;29823;47.404;8.566;2023-03-04T07:03:02;96900.97;;;1.94;100.00
39243;BME280;29823;47.404;8.566;2023-03-04T07:05:31;96903.59;;;1.94;100.00
39243;BME280;29823;47.404;8.566;2023-03-04T07:07:59;96911.19;;;1.89;100.00
39243;BME280;29823;47.404;8.566;2023-03-04T07:10:27;96906.88;;;1.96;100.00
39243;BME280;29823;47.404;8.566;2023-03-04T07:12:55;96912.47;;;2.09;100.00
39243;BME280;29823;47.404;8.566;2023-03-04T07:15:22;96913.72;;;2.29;100.00
39243;BME280;29823;47.404;8.566;2023-03-04T07:17:50;96903.69;;;2.55;100.00
39243;BME280;29823;47.404;8.566;2023-03-04T07:20:18;96902.81;;;2.93;100.00
39243;BME280;29823;47.404;8.566;2023-03-04T07:22:47;96900.63;;;2.74;100.00
39243;BME280;29823;47.404;8.566;2023-03-04T07:25:15;96905.53;;;2.85;100.00
39243;BME280;29823;47.404;8.566;2023-03-04T07:27:44;96911.28;;;2.89;100.00
39243;BME280;29823;47.404;8.566;2023-03-04T07:30:12;96896.97;;;3.06;100.00
39243;BME280;29823;47.404;8.566;2023-03-04T07:32:40;96908.59;;;2.97;100.00
39243;BME280;29823;47.404;8.566;2023-03-04T07:35:08;96907.28;;;3.38;100.00
39243;BME280;29823;47.404;8.566;2023-03-04T07:37:36;96911.53;;;3.24;100.00
39243;BME280;29823;47.404;8.566;2023-03-04T07:40:08;96918.88;;;3.59;100.00
39243;BME280;29823;47.404;8.566;2023-03-04T07:42:36;96915.78;;;3.70;100.00
39243;BME280;29823;47.404;8.566;2023-03-04T07:45:05;96919.34;;;3.77;100.00
39243;BME280;29823;47.404;8.566;2023-03-04T07:47:33;96929.16;;;3.91;100.00
39243;BME280;29823;47.404;8.566;2023-03-04T07:50:01;96929.06;;;3.99;100.00
39243;BME280;29823;47.404;8.566;2023-03-04T07:52:29;96925.56;;;3.84;100.00
39243;BME280;29823;47.404;8.566;2023-03-04T07:54:56;96927.88;;;4.02;100.00
39243;BME280;29823;47.404;8.566;2023-03-04T07:57:25;96920.41;;;4.20;100.00
39243;BME280;29823;47.404;8.566;2023-03-04T07:59:53;96926.19;;;4.23;100.00
39243;BME280;29823;47.404;8.566;2023-03-04T08:02:21;96924.88;;;4.05;100.00
39243;BME280;29823;47.404;8.566;2023-03-04T08:04:49;96926.13;;;3.94;100.00
39243;BME280;29823;47.404;8.566;2023-03-04T08:07:17;96921.75;;;4.59;100.00
39243;BME280;29823;47.404;8.566;2023-03-04T08:09:45;96920.25;;;4.50;100.00
39243;BME280;29823;47.404;8.566;2023-03-04T08:12:13;96912.59;;;4.91;100.00
39243;BME280;29823;47.404;8.566;2023-03-04T08:14:42;96909.91;;;5.26;100.00
39243;BME280;29823;47.404;8.566;2023-03-04T08:17:10;96916.94;;;4.98;100.00
39243;BME280;29823;47.404;8.566;2023-03-04T08:19:40;96915.03;;;4.92;100.00
39243;BME280;29823;47.404;8.566;2023-03-04T08:22:08;96909.31;;;4.74;100.00
39243;BME280;29823;47.404;8.566;2023-03-04T08:24:35;96910.91;;;4.54;100.00
39243;BME280;29823;47.404;8.566;2023-03-04T08:27:03;96908.59;;;4.80;100.00
39243;BME280;29823;47.404;8.566;2023-03-04T08:29:31;96909.69;;;4.71;100.00
39243;BME280;29823;47.404;8.566;2023-03-04T08:32:00;96907.38;;;4.83;100.00
39243;BME280;29823;47.404;8.566;2023-03-04T08:34:28;96907.69;;;4.73;100.00
39243;BME280;29823;47.404;8.566;2023-03-04T08:36:56;96902.19;;;4.89;100.00
39243;BME280;29823;47.404;8.566;2023-03-04T08:39:24;96905.63;;;5.46;100.00
39243;BME280;29823;47.404;8.566;2023-03-04T08:41:52;96903.78;;;5.68;100.00
39243;BME280;29823;47.404;8.566;2023-03-04T08:44:20;96915.06;;;5.97;100.00
39243;BME280;29823;47.404;8.566;2023-03-04T08:46:50;96911.34;;;6.53;100.00
39243;BME280;29823;47.404;8.566;2023-03-04T08:49:19;96913.47;;;6.71;100.00
39243;BME280;29823;47.404;8.566;2023-03-04T08:51:47;96902.88;;;6.77;100.00
39243;BME280;29823;47.404;8.566;2023-03-04T08:54:15;96907.06;;;5.91;100.00
39243;BME280;29823;47.404;8.566;2023-03-04T08:56:43;96909.47;;;6.88;100.00
39243;BME280;29823;47.404;8.566;2023-03-04T08:59:10;96913.28;;;6.38;100.00
39243;BME280;29823;47.404;8.566;2023-03-04T09:01:38;96914.44;;;7.04;100.00
39243;BME280;29823;47.404;8.566;2023-03-04T09:04:06;96903.84;;;7.23;100.00
39243;BME280;29823;47.404;8.566;2023-03-04T09:06:35;96911.00;;;6.69;100.00
39243;BME280;29823;47.404;8.566;2023-03-04T09:09:04;96905.41;;;6.92;100.00
39243;BME280;29823;47.404;8.566;2023-03-04T09:11:31;96905.91;;;7.21;100.00
39243;BME280;29823;47.404;8.566;2023-03-04T09:13:59;96903.00;;;7.03;100.00
39243;BME280;29823;47.404;8.566;2023-03-04T09:16:27;96905.16;;;8.38;100.00
39243;BME280;29823;47.404;8.566;2023-03-04T09:18:55;96901.06;;;7.70;100.00
39243;BME280;29823;47.404;8.566;2023-03-04T09:21:23;96897.03;;;8.77;100.00
39243;BME280;29823;47.404;8.566;2023-03-04T09:23:52;96885.97;;;9.55;92.39
39243;BME280;29823;47.404;8.566;2023-03-04T09:26:22;96892.19;;;10.04;82.78
39243;BME280;29823;47.404;8.566;2023-03-04T09:28:50;96886.13;;;10.15;79.64
39243;BME280;29823;47.404;8.566;2023-03-04T09:31:18;96883.59;;;9.09;79.53
39243;BME280;29823;47.404;8.566;2023-03-04T09:33:47;96877.13;;;9.23;84.43
39243;BME280;29823;47.404;8.566;2023-03-04T09:36:15;96880.16;;;9.33;84.83
39243;BME280;29823;47.404;8.566;2023-03-04T09:38:44;96873.25;;;10.30;78.31
39243;BME280;29823;47.404;8.566;2023-03-04T09:41:16;96884.88;;;10.78;72.48
39243;BME280;29823;47.404;8.566;2023-03-04T09:43:45;96883.25;;;10.17;76.16
39243;BME280;29823;47.404;8.566;2023-03-04T09:46:17;96881.75;;;10.45;73.40
39243;BME280;29823;47.404;8.566;2023-03-04T09:48:49;96883.94;;;10.30;74.99
39243;BME280;29823;47.404;8.566;2023-03-04T09:51:20;96884.38;;;9.78;74.46
39243;BME280;29823;47.404;8.566;2023-03-04T09:53:58;96885.38;;;9.22;79.44
39243;BME280;29823;47.404;8.566;2023-03-04T09:56:32;96884.06;;;10.17;76.93
39243;BME280;29823;47.404;8.566;2023-03-04T09:59:06;96877.66;;;9.94;78.94
39243;BME280;29823;47.404;8.566;2023-03-04T10:01:41;96879.53;;;10.18;75.74
39243;BME280;29823;47.404;8.566;2023-03-04T10:04:15;96875.22;;;10.77;73.69
39243;BME280;29823;47.404;8.566;2023-03-04T10:06:44;96869.25;;;10.57;73.50
39243;BME280;29823;47.404;8.566;2023-03-04T10:09:23;96865.34;;;9.37;76.62
39243;BME280;29823;47.404;8.566;2023-03-04T10:12:00;96874.63;;;9.28;84.49
39243;BME280;29823;47.404;8.566;2023-03-04T10:14:34;96871.84;;;9.48;78.40
39243;BME280;29823;47.404;8.566;2023-03-04T10:17:07;96874.28;;;8.74;85.70
39243;BME280;29823;47.404;8.566;2023-03-04T10:19:50;96869.13;;;9.23;82.79
39243;BME280;29823;47.404;8.566;2023-03-04T10:22:24;96856.56;;;10.10;76.45
39243;BME280;29823;47.404;8.566;2023-03-04T10:24:56;96864.53;;;9.92;76.61
39243;BME280;29823;47.404;8.566;2023-03-04T10:27:25;96864.31;;;10.18;77.42
39243;BME280;29823;47.404;8.566;2023-03-04T10:29:57;96864.09;;;9.95;77.91
39243;BME280;29823;47.404;8.566;2023-03-04T10:32:26;96868.47;;;10.14;79.83
39243;BME280;29823;47.404;8.566;2023-03-04T10:34:54;96860.03;;;10.17;75.63
39243;BME280;29823;47.404;8.566;2023-03-04T10:37:22;96862.13;;;10.69;74.58
39243;BME280;29823;47.404;8.566;2023-03-04T10:39:50;96846.00;;;10.76;73.30
39243;BME280;29823;47.404;8.566;2023-03-04T10:42:28;96841.94;;;10.37;74.72
39243;BME280;29823;47.404;8.566;2023-03-04T10:45:05;96852.19;;;10.58;75.07
39243;BME280;29823;47.404;8.566;2023-03-04T10:47:50;96851.41;;;11.35;72.43
39243;BME280;29823;47.404;8.566;2023-03-04T10:50:21;96847.31;;;11.62;69.14
39243;BME280;29823;47.404;8.566;2023-03-04T10:52:50;96847.50;;;10.54;70.58
39243;BME280;29823;47.404;8.566;2023-03-04T10:55:22;96841.84;;;10.80;70.75
39243;BME280;29823;47.404;8.566;2023-03-04T10:57:54;96846.59;;;11.25;69.52
39243;BME280;29823;47.404;8.566;2023-03-04T11:00:27;96840.69;;;11.05;69.39
39243;BME280;29823;47.404;8.566;2023-03-04T11:03:21;96827.31;;;12.68;62.44
39243;BME280;29823;47.404;8.566;2023-03-04T11:05:50;96829.34;;;13.56;61.33
39243;BME280;29823;47.404;8.566;2023-03-04T11:08:20;96818.69;;;13.94;59.25
39243;BME280;29823;47.404;8.566;2023-03-04T11:10:50;96830.22;;;13.62;60.27
39243;BME280;29823;47.404;8.566;2023-03-04T11:13:21;96824.19;;;12.36;61.46
39243;BME280;29823;47.404;8.566;2023-03-04T11:15:51;96827.78;;;13.60;58.10
39243;BME280;29823;47.404;8.566;2023-03-04T11:18:27;96815.84;;;14.34;58.92
39243;BME280;29823;47.404;8.566;2023-03-04T11:20:59;96810.50;;;14.98;57.01
39243;BME280;29823;47.404;8.566;2023-03-04T11:23:33;96805.53;;;13.48;57.21
39243;BME280;29823;47.404;8.566;2023-03-04T11:26:07;96802.22;;;14.83;55.60
39243;BME280;29823;47.404;8.566;2023-03-04T11:28:42;96797.69;;;15.58;53.54
39243;BME280;29823;47.404;8.566;2023-03-04T11:31:15;96795.69;;;15.75;52.02
39243;BME280;29823;47.404;8.566;2023-03-04T11:33:49;96794.22;;;15.58;53.39
39243;BME280;29823;47.404;8.566;2023-03-04T11:36:27;96777.34;;;15.19;51.35
39243;BME280;29823;47.404;8.566;2023-03-04T11:38:58;96785.16;;;15.69;51.70
39243;BME280;29823;47.404;8.566;2023-03-04T11:41:29;96786.25;;;16.41;50.58
39243;BME280;29823;47.404;8.566;2023-03-04T11:44:00;96785.16;;;16.05;49.37
39243;BME280;29823;47.404;8.566;2023-03-04T11:46:48;96786.72;;;15.38;50.76
39243;BME280;29823;47.404;8.566;2023-03-04T11:49:24;96789.66;;;14.29;54.50
39243;BME280;29823;47.404;8.566;2023-03-04T11:52:03;96764.69;;;15.20;52.38
39243;BME280;29823;47.404;8.566;2023-03-04T11:54:43;96747.56;;;16.35;50.41
39243;BME280;29823;47.404;8.566;2023-03-04T11:57:22;96768.81;;;16.17;48.60
39243;BME280;29823;47.404;8.566;2023-03-04T12:00:04;96772.13;;;15.97;49.89
39243;BME280;29823;47.404;8.566;2023-03-04T12:02:44;96770.22;;;17.67;45.71
39243;BME280;29823;47.404;8.566;2023-03-04T12:05:28;96763.19;;;16.75;46.51
39243;BME280;29823;47.404;8.566;2023-03-04T12:10:57;96751.88;;;16.78;45.31
39243;BME280;29823;47.404;8.566;2023-03-04T12:13:53;96747.47;;;16.62;46.46
39243;BME280;29823;47.404;8.566;2023-03-04T12:16:38;96749.47;;;15.93;47.92
39243;BME280;29823;47.404;8.566;2023-03-04T12:19:21;96745.81;;;17.37;45.22
39243;BME280;29823;47.404;8.566;2023-03-04T12:22:05;96736.22;;;16.28;46.35
39243;BME280;29823;47.404;8.566;2023-03-04T12:27:35;96730.47;;;16.66;47.10
39243;BME280;29823;47.404;8.566;2023-03-04T12:30:18;96730.44;;;18.03;44.32
39243;BME280;29823;47.404;8.566;2023-03-04T12:32:52;96725.81;;;16.05;47.94
39243;BME280;29823;47.404;8.566;2023-03-04T12:35:30;96727.22;;;16.59;46.21
39243;BME280;29823;47.404;8.566;2023-03-04T12:38:08;96721.19;;;15.64;47.98
39243;BME280;29823;47.404;8.566;2023-03-04T12:40:48;96716.31;;;17.11;47.43
39243;BME280;29823;47.404;8.566;2023-03-04T12:43:36;96704.38;;;16.97;44.93
39243;BME280;29823;47.404;8.566;2023-03-04T12:46:20;96708.53;;;17.99;44.39
39243;BME280;29823;47.404;8.566;2023-03-04T12:49:04;96704.28;;;16.10;45.06
39243;BME280;29823;47.404;8.566;2023-03-04T12:51:41;96699.88;;;17.22;44.84
39243;BME280;29823;47.404;8.566;2023-03-04T12:54:21;96695.44;;;16.25;45.54
39243;BME280;29823;47.404;8.566;2023-03-04T12:56:53;96697.88;;;15.48;47.84
39243;BME280;29823;47.404;8.566;2023-03-04T12:59:25;96691.16;;;16.95;44.95
39243;BME280;29823;47.404;8.566;2023-03-04T13:02:00;96697.44;;;15.56;47.09
39243;BME280;29823;47.404;8.566;2023-03-04T13:04:45;96691.00;;;14.78;48.14
39243;BME280;29823;47.404;8.566;2023-03-04T13:07:25;96690.72;;;16.00;46.73
39243;BME280;29823;47.404;8.566;2023-03-04T13:10:04;96659.66;;;14.02;50.93
39243;BME280;29823;47.404;8.566;2023-03-04T13:12:47;96688.25;;;13.21;52.36
39243;BME280;29823;47.404;8.566;2023-03-04T13:15:34;96675.94;;;13.08;54.00
39243;BME280;29823;47.404;8.566;2023-03-04T13:18:30;96675.78;;;11.91;56.00
39243;BME280;29823;47.404;8.566;2023-03-04T13:21:23;96668.94;;;12.23;56.03
39243;BME280;29823;47.404;8.566;2023-03-04T13:23:52;96675.66;;;11.29;56.02